Terminal Aerodrome Forecast
Issued by NWS Bismarck, ND

Home | Current Version | Previous Version | Text Only | Print | Product List | Glossary Off
Versions: 1 2 3 4 5 6 7 8 9 10 11 12 13 14 15 16 17 18 19 20

852
FTUS43 KBIS 201128
TAFBIS
TAF
KBIS 201128Z 2012/2112 VRB05KT P6SM VCSH OVC090
     FM202000 32004KT P6SM OVC040
     FM210200 36008KT P6SM BKN150=

USA.gov is the U.S. government's official web portal to all federal, state and local government web resources and services.